createdAt,value
2018-09-22T00:00:15.723Z,0.00
2018-09-22T00:01:15.604Z,0.00
2018-09-22T00:02:15.604Z,0.00
2018-09-22T00:03:15.599Z,0.00
2018-09-22T00:04:15.480Z,0.00
2018-09-22T00:05:15.479Z,0.00
2018-09-22T00:06:15.482Z,0.00
2018-09-22T00:07:15.357Z,0.00
2018-09-22T00:08:15.357Z,0.00
2018-09-22T00:09:15.237Z,0.00
2018-09-22T00:10:15.241Z,0.00
2018-09-22T00:11:15.238Z,0.00
2018-09-22T00:12:15.116Z,0.00
2018-09-22T00:13:15.118Z,0.00
2018-09-22T00:14:15.121Z,0.00
2018-09-22T00:15:14.996Z,0.00
2018-09-22T00:16:15.004Z,0.00
2018-09-22T00:17:14.959Z,0.00
2018-09-22T00:18:14.875Z,0.00
2018-09-22T00:19:14.875Z,0.00
2018-09-22T00:20:14.756Z,0.00
2018-09-22T00:21:14.753Z,0.00
2018-09-22T00:22:14.755Z,0.00
2018-09-22T00:23:14.635Z,0.00
2018-09-22T00:24:14.636Z,0.00
2018-09-22T00:25:14.637Z,0.00
2018-09-22T00:26:14.514Z,0.00
2018-09-22T00:27:14.523Z,0.00
2018-09-22T00:28:14.395Z,0.00
2018-09-22T00:29:14.399Z,0.00
2018-09-22T00:30:14.393Z,0.00
2018-09-22T00:31:14.275Z,0.00
2018-09-22T00:32:14.273Z,0.00
2018-09-22T00:33:14.274Z,0.00
2018-09-22T00:34:14.154Z,0.00
2018-09-22T00:35:14.152Z,0.00
2018-09-22T00:36:14.031Z,0.00
2018-09-22T00:37:14.039Z,0.00
2018-09-22T00:38:14.032Z,0.00
2018-09-22T00:39:13.909Z,0.00
2018-09-22T00:40:13.919Z,0.00
2018-09-22T00:41:13.912Z,0.00
2018-09-22T00:42:13.789Z,0.00
2018-09-22T00:43:13.788Z,0.00
2018-09-22T00:44:13.752Z,0.00
2018-09-22T00:45:13.669Z,0.00
2018-09-22T00:46:13.673Z,0.00
2018-09-22T00:47:13.632Z,0.00
2018-09-22T00:48:13.549Z,0.00
2018-09-22T00:49:13.557Z,0.00
2018-09-22T00:50:13.431Z,0.00
2018-09-22T00:51:13.426Z,0.00
2018-09-22T00:52:13.390Z,0.00
2018-09-22T00:53:13.312Z,0.00
2018-09-22T00:54:13.306Z,0.00
2018-09-22T00:55:13.189Z,0.00
2018-09-22T00:56:13.188Z,0.00
2018-09-22T00:57:13.189Z,0.00
2018-09-22T00:58:13.066Z,0.00
2018-09-22T00:59:13.085Z,0.00
2018-09-22T01:00:13.029Z,0.00
2018-09-22T01:01:12.948Z,0.00
2018-09-22T01:02:12.945Z,0.00
2018-09-22T01:03:12.826Z,0.00
2018-09-22T01:04:12.826Z,0.00
2018-09-22T01:05:12.828Z,0.00
2018-09-22T01:06:12.705Z,0.00
2018-09-22T01:07:12.704Z,0.00
2018-09-22T01:08:12.705Z,0.00
2018-09-22T01:09:12.584Z,0.00
2018-09-22T01:10:12.584Z,0.00
2018-09-22T01:11:12.462Z,0.00
2018-09-22T01:12:12.463Z,0.00
2018-09-22T01:13:12.465Z,0.00
2018-09-22T01:14:12.349Z,0.00
2018-09-22T01:15:12.344Z,0.00
2018-09-22T01:16:12.341Z,0.00
2018-09-22T01:17:12.224Z,0.00
2018-09-22T01:18:12.224Z,0.00
2018-09-22T01:19:12.102Z,0.00
2018-09-22T01:20:12.105Z,0.00
2018-09-22T01:21:12.104Z,0.00
2018-09-22T01:22:11.981Z,0.00
2018-09-22T01:23:11.984Z,0.00
2018-09-22T01:24:11.983Z,0.00
2018-09-22T01:25:11.865Z,0.00
2018-09-22T01:26:11.863Z,0.00
2018-09-22T01:27:11.742Z,0.00
2018-09-22T01:28:11.742Z,0.00
2018-09-22T01:29:11.741Z,0.00
2018-09-22T01:30:11.621Z,0.00
2018-09-22T01:31:11.620Z,0.00
2018-09-22T01:32:11.619Z,0.00
2018-09-22T01:33:11.500Z,0.00
2018-09-22T01:34:11.500Z,0.00
2018-09-22T01:35:11.379Z,0.00
2018-09-22T01:36:11.384Z,0.00
2018-09-22T01:37:11.378Z,0.00
2018-09-22T01:38:11.257Z,0.00
2018-09-22T01:39:11.260Z,0.00
2018-09-22T01:40:11.276Z,0.00
2018-09-22T01:41:11.136Z,0.00
2018-09-22T01:42:11.138Z,0.00
2018-09-22T01:43:11.031Z,0.00
2018-09-22T01:44:11.017Z,0.00
2018-09-22T01:45:11.016Z,0.00
2018-09-22T01:46:10.896Z,0.00
2018-09-22T01:47:10.896Z,0.00
2018-09-22T01:48:10.895Z,0.00
2018-09-22T01:49:10.777Z,0.00
2018-09-22T01:50:10.778Z,0.00
2018-09-22T01:51:10.654Z,0.00
2018-09-22T01:52:10.660Z,0.00
2018-09-22T01:53:12.335Z,0.00
2018-09-22T01:54:10.535Z,0.00
2018-09-22T01:55:10.535Z,0.00
2018-09-22T01:56:10.534Z,0.00
2018-09-22T01:57:10.414Z,0.00
2018-09-22T01:58:10.415Z,0.00
2018-09-22T01:59:10.298Z,0.00
2018-09-22T02:00:10.297Z,0.00
2018-09-22T02:01:10.291Z,0.00
2018-09-22T02:02:10.175Z,0.00
2018-09-22T02:03:10.176Z,0.00
2018-09-22T02:04:10.172Z,0.00
2018-09-22T02:05:10.054Z,0.00
2018-09-22T02:06:10.052Z,0.00
2018-09-22T02:07:09.936Z,0.00
2018-09-22T02:08:09.991Z,0.00
2018-09-22T02:09:09.931Z,0.00
2018-09-22T02:10:09.810Z,0.00
2018-09-22T02:11:09.815Z,0.00
2018-09-22T02:12:09.810Z,0.00
2018-09-22T02:13:09.693Z,0.00
2018-09-22T02:14:09.692Z,0.00
2018-09-22T02:15:09.653Z,0.00
2018-09-22T02:16:09.575Z,0.00
2018-09-22T02:17:09.571Z,0.00
2018-09-22T02:18:09.456Z,0.00
2018-09-22T02:19:09.449Z,0.00
2018-09-22T02:20:09.448Z,0.00
2018-09-22T02:21:09.331Z,0.00
2018-09-22T02:22:09.328Z,0.00
2018-09-22T02:23:09.209Z,0.00
2018-09-22T02:24:09.209Z,0.00
2018-09-22T02:25:09.214Z,0.00
2018-09-22T02:26:09.089Z,0.00
2018-09-22T02:27:09.090Z,0.00
2018-09-22T02:28:09.092Z,0.00
2018-09-22T02:29:08.966Z,0.00
2018-09-22T02:30:08.970Z,0.00
2018-09-22T02:31:08.928Z,0.00
2018-09-22T02:32:08.877Z,0.00
2018-09-22T02:33:08.845Z,0.00
2018-09-22T02:34:08.727Z,0.00
2018-09-22T02:35:08.729Z,0.00
2018-09-22T02:36:08.725Z,0.00
2018-09-22T02:37:08.608Z,0.00
2018-09-22T02:38:08.606Z,0.00
2018-09-22T02:39:08.489Z,0.00
2018-09-22T02:40:08.486Z,0.00
2018-09-22T02:41:08.486Z,0.00
2018-09-22T02:42:08.372Z,0.00
2018-09-22T02:43:08.369Z,0.00
2018-09-22T02:44:08.365Z,0.00
2018-09-22T02:45:08.245Z,0.00
2018-09-22T02:46:08.242Z,0.00
2018-09-22T02:47:08.124Z,0.00
2018-09-22T02:48:08.122Z,0.00
2018-09-22T02:49:08.126Z,0.00
2018-09-22T02:50:08.005Z,0.00
2018-09-22T02:51:08.005Z,0.00
2018-09-22T02:52:08.002Z,0.00
2018-09-22T02:53:07.883Z,0.00
2018-09-22T02:54:12.683Z,0.00
2018-09-22T02:55:07.770Z,0.00
2018-09-22T02:56:07.761Z,0.00
2018-09-22T02:57:07.761Z,0.00
2018-09-22T02:58:07.641Z,0.00
2018-09-22T02:59:07.639Z,0.00
2018-09-22T03:00:07.642Z,0.00
2018-09-22T03:01:07.523Z,0.00
2018-09-22T03:02:07.520Z,0.00
2018-09-22T03:03:07.398Z,0.00
2018-09-22T03:04:07.400Z,0.00
2018-09-22T03:05:07.399Z,0.00
2018-09-22T03:06:07.280Z,0.00
2018-09-22T03:07:07.277Z,0.00
2018-09-22T03:08:07.280Z,0.00
2018-09-22T03:09:07.159Z,0.00
2018-09-22T03:10:07.160Z,0.00
2018-09-22T03:11:07.036Z,0.00
2018-09-22T03:12:07.045Z,0.00
2018-09-22T03:13:07.038Z,0.00
2018-09-22T03:14:06.917Z,0.00
2018-09-22T03:15:06.918Z,0.00
2018-09-22T03:16:06.917Z,0.00
2018-09-22T03:17:06.801Z,0.00
2018-09-22T03:18:06.799Z,0.00
2018-09-22T03:19:06.679Z,0.00
2018-09-22T03:20:06.681Z,0.00
2018-09-22T03:21:06.675Z,0.00
2018-09-22T03:22:06.558Z,0.00
2018-09-22T03:23:06.557Z,0.00
2018-09-22T03:24:06.560Z,0.00
2018-09-22T03:25:06.439Z,0.00
2018-09-22T03:26:06.434Z,0.00
2018-09-22T03:27:06.317Z,0.00
2018-09-22T03:28:06.322Z,0.00
2018-09-22T03:29:06.324Z,0.00
2018-09-22T03:30:06.194Z,0.00
2018-09-22T03:31:06.195Z,0.00
2018-09-22T03:32:06.194Z,0.00
2018-09-22T03:33:06.072Z,0.00
2018-09-22T03:34:06.075Z,0.00
2018-09-22T03:35:05.952Z,0.00
2018-09-22T03:36:05.953Z,0.00
2018-09-22T03:37:05.952Z,0.00
2018-09-22T03:38:05.838Z,0.00
2018-09-22T03:39:05.834Z,0.00
2018-09-22T03:40:05.829Z,0.00
2018-09-22T03:41:05.711Z,0.00
2018-09-22T03:42:05.711Z,0.00
2018-09-22T03:43:05.590Z,0.00
2018-09-22T03:44:05.594Z,0.00
2018-09-22T03:45:05.591Z,0.00
2018-09-22T03:46:05.475Z,0.00
2018-09-22T03:47:05.471Z,0.00
2018-09-22T03:48:05.467Z,0.00
2018-09-22T03:49:05.350Z,0.00
2018-09-22T03:50:05.351Z,0.00
2018-09-22T03:51:05.230Z,0.00
2018-09-22T03:52:05.230Z,0.00
2018-09-22T03:53:05.238Z,0.00
2018-09-22T03:54:05.108Z,0.00
2018-09-22T03:55:05.115Z,0.00
2018-09-22T03:56:05.074Z,0.00
2018-09-22T03:57:04.989Z,0.00
2018-09-22T03:58:04.988Z,0.00
2018-09-22T03:59:04.880Z,0.00
2018-09-22T04:00:04.867Z,0.00
2018-09-22T04:01:04.867Z,0.00
2018-09-22T04:02:04.746Z,0.00
2018-09-22T04:03:04.746Z,0.00
2018-09-22T04:04:04.630Z,0.00
2018-09-22T04:05:04.626Z,0.00
2018-09-22T04:06:04.625Z,0.00
2018-09-22T04:07:04.508Z,0.00
2018-09-22T04:08:04.507Z,0.00
2018-09-22T04:09:04.508Z,0.00
2018-09-22T04:10:04.385Z,0.00
2018-09-22T04:11:04.383Z,0.00
2018-09-22T04:12:04.267Z,0.00
2018-09-22T04:13:04.265Z,0.00
2018-09-22T04:14:04.266Z,0.00
2018-09-22T04:15:04.144Z,0.00
2018-09-22T04:16:04.144Z,0.00
2018-09-22T04:17:04.143Z,0.00
2018-09-22T04:18:04.024Z,0.00
2018-09-22T04:19:04.023Z,0.00
2018-09-22T04:20:03.904Z,0.00
2018-09-22T04:21:03.907Z,0.00
2018-09-22T04:22:03.903Z,0.00
2018-09-22T04:23:03.782Z,0.00
2018-09-22T04:24:03.782Z,0.00
2018-09-22T04:25:03.782Z,0.00
2018-09-22T04:26:03.665Z,0.00
2018-09-22T04:27:03.663Z,0.00
2018-09-22T04:28:03.541Z,0.00
2018-09-22T04:29:03.540Z,0.00
2018-09-22T04:30:03.540Z,0.00
2018-09-22T04:31:03.424Z,0.00
2018-09-22T04:32:03.421Z,0.00
2018-09-22T04:33:03.421Z,0.00
2018-09-22T04:34:03.305Z,0.00
2018-09-22T04:35:03.306Z,0.00
2018-09-22T04:36:03.180Z,0.00
2018-09-22T04:37:03.179Z,0.00
2018-09-22T04:38:03.182Z,0.00
2018-09-22T04:39:03.059Z,0.00
2018-09-22T04:40:03.058Z,0.00
2018-09-22T04:41:03.061Z,0.00
2018-09-22T04:42:02.938Z,0.00
2018-09-22T04:43:02.937Z,0.00
2018-09-22T04:44:02.819Z,0.00
2018-09-22T04:45:02.823Z,0.00
2018-09-22T04:46:02.817Z,0.00
2018-09-22T04:47:02.706Z,0.00
2018-09-22T04:48:02.696Z,0.00
2018-09-22T04:49:02.710Z,0.00
2018-09-22T04:50:02.580Z,0.00
2018-09-22T04:51:02.578Z,0.00
2018-09-22T04:52:02.458Z,0.00
2018-09-22T04:53:02.456Z,0.00
2018-09-22T04:54:02.456Z,0.00
2018-09-22T04:55:02.335Z,4.00
2018-09-22T04:56:02.338Z,4.00
2018-09-22T04:57:02.336Z,0.00
2018-09-22T04:58:02.216Z,4.00
2018-09-22T04:59:02.216Z,4.00
2018-09-22T05:00:02.101Z,4.00
2018-09-22T05:01:02.095Z,4.00
2018-09-22T05:02:02.095Z,4.00
2018-09-22T05:03:01.974Z,8.00
2018-09-22T05:04:01.976Z,8.00
2018-09-22T05:05:01.974Z,8.00
2018-09-22T05:06:01.855Z,8.00
2018-09-22T05:07:01.855Z,12.00
2018-09-22T05:08:01.733Z,16.00
2018-09-22T05:09:01.746Z,12.00
2018-09-22T05:10:01.740Z,20.00
2018-09-22T05:11:01.614Z,20.00
2018-09-22T05:12:01.611Z,24.00
2018-09-22T05:13:01.622Z,28.00
2018-09-22T05:14:01.494Z,28.00
2018-09-22T05:15:01.497Z,36.00
2018-09-22T05:16:01.372Z,36.00
2018-09-22T05:17:01.389Z,44.00
2018-09-22T05:18:01.379Z,52.00
2018-09-22T05:19:01.259Z,56.00
2018-09-22T05:20:01.261Z,56.00
2018-09-22T05:21:01.251Z,60.00
2018-09-22T05:22:01.129Z,64.00
2018-09-22T05:23:01.128Z,64.00
2018-09-22T05:24:01.010Z,68.00
2018-09-22T05:25:01.009Z,72.00
2018-09-22T05:26:01.013Z,80.00
2018-09-22T05:27:00.891Z,84.00
2018-09-22T05:28:00.887Z,92.00
2018-09-22T05:29:00.891Z,100.00
2018-09-22T05:30:00.769Z,108.00
2018-09-22T05:31:00.769Z,120.00
2018-09-22T05:32:00.647Z,128.00
2018-09-22T05:33:00.647Z,140.00
2018-09-22T05:34:00.655Z,148.00
2018-09-22T05:35:00.527Z,164.00
2018-09-22T05:36:00.529Z,180.00
2018-09-22T05:37:00.526Z,196.00
2018-09-22T05:38:00.409Z,204.00
2018-09-22T05:39:00.407Z,212.00
2018-09-22T05:40:00.287Z,216.00
2018-09-22T05:41:00.286Z,224.00
2018-09-22T05:42:00.284Z,256.00
2018-09-22T05:43:00.168Z,260.00
2018-09-22T05:44:00.164Z,236.00
2018-09-22T05:45:00.167Z,228.00
2018-09-22T05:46:00.054Z,224.00
2018-09-22T05:47:00.056Z,228.00
2018-09-22T05:47:59.925Z,244.00
2018-09-22T05:48:59.931Z,256.00
2018-09-22T05:49:59.923Z,268.00
2018-09-22T05:50:59.804Z,276.00
2018-09-22T05:51:59.804Z,280.00
2018-09-22T05:52:59.804Z,280.00
2018-09-22T05:53:59.694Z,280.00
2018-09-22T05:54:59.681Z,284.00
2018-09-22T05:55:59.562Z,296.00
2018-09-22T05:56:59.578Z,320.00
2018-09-22T05:57:59.596Z,372.00
2018-09-22T05:58:59.441Z,432.00
2018-09-22T05:59:59.441Z,492.00
2018-09-22T06:00:59.441Z,516.00
2018-09-22T06:01:59.320Z,532.00
2018-09-22T06:02:59.326Z,532.00
2018-09-22T06:03:59.320Z,524.00
2018-09-22T06:04:59.200Z,540.00
2018-09-22T06:05:59.200Z,564.00
2018-09-22T06:06:59.080Z,568.00
2018-09-22T06:07:59.081Z,592.00
2018-09-22T06:08:59.082Z,632.00
2018-09-22T06:09:58.962Z,668.00
2018-09-22T06:10:58.959Z,688.00
2018-09-22T06:11:58.840Z,724.00
2018-09-22T06:12:58.842Z,772.00
2018-09-22T06:13:58.838Z,836.00
2018-09-22T06:14:58.717Z,896.00
2018-09-22T06:15:58.718Z,976.00
2018-09-22T06:16:58.719Z,1068.00
2018-09-22T06:17:58.598Z,1124.00
2018-09-22T06:18:58.597Z,1060.00
2018-09-22T06:19:58.479Z,1016.00
2018-09-22T06:20:58.479Z,972.00
2018-09-22T06:21:58.478Z,968.00
2018-09-22T06:22:58.387Z,952.00
2018-09-22T06:23:58.356Z,900.00
2018-09-22T06:24:58.357Z,856.00
2018-09-22T06:25:58.236Z,840.00
2018-09-22T06:26:58.234Z,908.00
2018-09-22T06:27:58.199Z,1028.00
2018-09-22T06:28:58.120Z,1068.00
2018-09-22T06:29:58.120Z,1036.00
2018-09-22T06:30:57.994Z,1012.00
2018-09-22T06:31:57.993Z,988.00
2018-09-22T06:32:57.993Z,1008.00
2018-09-22T06:33:57.878Z,1072.00
2018-09-22T06:34:57.872Z,1168.00
2018-09-22T06:35:57.755Z,1304.00
2018-09-22T06:36:57.754Z,1444.00
2018-09-22T06:37:57.754Z,1332.00
2018-09-22T06:38:57.636Z,1392.00
2018-09-22T06:39:57.633Z,1208.00
2018-09-22T06:40:57.632Z,1248.00
2018-09-22T06:41:57.519Z,1476.00
2018-09-22T06:42:57.512Z,1696.00
2018-09-22T06:43:57.394Z,1856.00
2018-09-22T06:44:57.391Z,1772.00
2018-09-22T06:45:57.392Z,1844.00
2018-09-22T06:46:57.276Z,2136.00
2018-09-22T06:47:57.277Z,2092.00
2018-09-22T06:48:57.271Z,2548.00
2018-09-22T06:49:57.151Z,2656.00
2018-09-22T06:50:57.150Z,2764.00
2018-09-22T06:51:57.113Z,2792.00
2018-09-22T06:52:57.034Z,2064.00
2018-09-22T06:53:57.031Z,2624.00
2018-09-22T06:54:57.016Z,1856.00
2018-09-22T06:55:56.915Z,1212.00
2018-09-22T06:56:56.912Z,1496.00
2018-09-22T06:57:56.787Z,1320.00
2018-09-22T06:58:56.787Z,1356.00
2018-09-22T06:59:56.788Z,1384.00
2018-09-22T07:00:56.666Z,1376.00
2018-09-22T07:01:56.667Z,1604.00
2018-09-22T07:02:56.552Z,2184.00
2018-09-22T07:03:56.549Z,2336.00
2018-09-22T07:04:56.550Z,2640.00
2018-09-22T07:05:56.426Z,3020.00
2018-09-22T07:06:56.427Z,3312.00
2018-09-22T07:07:56.426Z,2828.00
2018-09-22T07:08:56.306Z,2904.00
2018-09-22T07:09:56.307Z,2532.00
2018-09-22T07:10:56.271Z,2648.00
2018-09-22T07:11:56.186Z,2384.00
2018-09-22T07:12:56.191Z,2100.00
2018-09-22T07:13:56.073Z,2244.00
2018-09-22T07:14:56.067Z,1968.00
2018-09-22T07:15:56.065Z,1892.00
2018-09-22T07:16:55.948Z,2076.00
2018-09-22T07:17:55.946Z,2380.00
2018-09-22T07:18:55.944Z,2368.00
2018-09-22T07:19:55.826Z,2136.00
2018-09-22T07:20:55.826Z,2156.00
2018-09-22T07:21:55.704Z,2144.00
2018-09-22T07:22:55.708Z,2072.00
2018-09-22T07:23:55.704Z,2020.00
2018-09-22T07:24:55.584Z,2028.00
2018-09-22T07:25:55.585Z,1780.00
2018-09-22T07:26:55.584Z,1872.00
2018-09-22T07:27:55.463Z,1756.00
2018-09-22T07:28:55.466Z,1608.00
2018-09-22T07:29:55.459Z,1560.00
2018-09-22T07:30:55.405Z,1680.00
2018-09-22T07:31:55.343Z,2024.00
2018-09-22T07:32:55.226Z,2200.00
2018-09-22T07:33:55.221Z,2208.00
2018-09-22T07:34:55.227Z,2284.00
2018-09-22T07:35:55.109Z,2336.00
2018-09-22T07:36:55.102Z,2460.00
2018-09-22T07:37:55.104Z,2336.00
2018-09-22T07:38:54.978Z,2268.00
2018-09-22T07:39:54.985Z,2352.00
2018-09-22T07:40:54.859Z,2344.00
2018-09-22T07:41:54.857Z,2272.00
2018-09-22T07:42:54.859Z,2464.00
2018-09-22T07:43:54.738Z,2424.00
2018-09-22T07:44:54.742Z,2436.00
2018-09-22T07:45:54.799Z,1884.00
2018-09-22T07:46:54.635Z,1880.00
2018-09-22T07:47:54.617Z,2404.00
2018-09-22T07:48:54.618Z,2164.00
2018-09-22T07:49:54.498Z,2412.00
2018-09-22T07:50:54.500Z,2332.00
2018-09-22T07:51:54.380Z,2464.00
2018-09-22T07:52:54.376Z,2560.00
2018-09-22T07:53:54.390Z,2716.00
2018-09-22T07:54:54.263Z,2832.00
2018-09-22T07:55:54.255Z,3020.00
2018-09-22T07:56:54.262Z,2872.00
2018-09-22T07:57:54.140Z,2692.00
2018-09-22T07:58:54.135Z,2568.00
2018-09-22T07:59:54.136Z,2504.00
2018-09-22T08:00:54.017Z,2240.00
2018-09-22T08:01:54.018Z,2320.00
2018-09-22T08:02:53.894Z,2060.00
2018-09-22T08:03:53.895Z,1936.00
2018-09-22T08:04:53.894Z,2600.00
2018-09-22T08:05:53.775Z,2824.00
2018-09-22T08:06:53.776Z,3016.00
2018-09-22T08:07:53.774Z,2908.00
2018-09-22T08:08:53.654Z,3068.00
2018-09-22T08:09:53.653Z,2492.00
2018-09-22T08:10:53.655Z,2452.00
2018-09-22T08:11:53.532Z,2364.00
2018-09-22T08:12:53.535Z,2476.00
2018-09-22T08:13:53.498Z,2708.00
2018-09-22T08:14:53.413Z,2760.00
2018-09-22T08:15:53.412Z,2528.00
2018-09-22T08:16:53.291Z,2768.00
2018-09-22T08:17:53.300Z,2764.00
2018-09-22T08:18:53.304Z,3124.00
2018-09-22T08:19:53.174Z,3312.00
2018-09-22T08:20:53.180Z,3260.00
2018-09-22T08:21:53.172Z,3444.00
2018-09-22T08:22:53.053Z,3512.00
2018-09-22T08:23:53.052Z,3008.00
2018-09-22T08:24:53.050Z,3472.00
2018-09-22T08:25:52.933Z,2676.00
2018-09-22T08:26:52.928Z,3076.00
2018-09-22T08:27:52.814Z,2788.00
2018-09-22T08:28:52.810Z,3132.00
2018-09-22T08:29:52.819Z,2976.00
2018-09-22T08:30:52.693Z,3648.00
2018-09-22T08:31:52.690Z,3692.00
2018-09-22T08:32:52.691Z,2780.00
2018-09-22T08:33:52.569Z,2692.00
2018-09-22T08:34:52.571Z,3364.00
2018-09-22T08:35:52.574Z,3068.00
2018-09-22T08:36:52.570Z,3436.00
2018-09-22T08:37:52.448Z,3092.00
2018-09-22T08:38:52.447Z,2768.00
2018-09-22T08:39:52.329Z,3040.00
2018-09-22T08:40:52.327Z,2676.00
2018-09-22T08:41:52.207Z,2576.00
2018-09-22T08:42:52.209Z,2516.00
2018-09-22T08:43:52.319Z,2336.00
2018-09-22T08:44:52.140Z,2280.00
2018-09-22T08:45:52.086Z,2308.00
2018-09-22T08:46:52.089Z,2376.00
2018-09-22T08:47:51.964Z,2516.00
2018-09-22T08:48:51.964Z,2624.00
2018-09-22T08:49:52.021Z,2740.00
2018-09-22T08:50:51.852Z,2528.00
2018-09-22T08:51:51.844Z,2276.00
2018-09-22T08:52:51.845Z,2428.00
2018-09-22T08:53:51.723Z,2100.00
2018-09-22T08:54:51.725Z,2004.00
2018-09-22T08:55:51.602Z,1988.00
2018-09-22T08:56:51.605Z,1824.00
2018-09-22T08:57:51.634Z,2028.00
2018-09-22T08:58:51.604Z,2588.00
2018-09-22T08:59:51.481Z,2588.00
2018-09-22T09:00:51.482Z,2708.00
2018-09-22T09:01:51.443Z,2512.00
2018-09-22T09:02:51.444Z,2112.00
2018-09-22T09:03:51.443Z,1900.00
2018-09-22T09:04:51.280Z,2088.00
2018-09-22T09:05:51.249Z,2064.00
2018-09-22T09:06:51.244Z,2344.00
2018-09-22T09:07:51.121Z,2600.00
2018-09-22T09:08:51.118Z,2644.00
2018-09-22T09:09:51.083Z,1904.00
2018-09-22T09:10:50.999Z,2592.00
2018-09-22T09:11:50.999Z,2964.00
2018-09-22T09:12:50.879Z,3096.00
2018-09-22T09:13:50.925Z,2792.00
2018-09-22T09:14:50.880Z,3144.00
2018-09-22T09:15:50.758Z,3288.00
2018-09-22T09:16:50.759Z,3428.00
2018-09-22T09:17:50.762Z,3452.00
2018-09-22T09:18:50.638Z,3496.00
2018-09-22T09:19:50.637Z,3612.00
2018-09-22T09:20:50.636Z,2236.00
2018-09-22T09:21:50.518Z,3868.00
2018-09-22T09:22:50.517Z,3420.00
2018-09-22T09:23:50.517Z,3232.00
2018-09-22T09:24:50.404Z,3432.00
2018-09-22T09:25:50.399Z,2988.00
2018-09-22T09:26:50.279Z,2960.00
2018-09-22T09:27:50.276Z,3140.00
2018-09-22T09:28:50.277Z,3576.00
2018-09-22T09:29:50.156Z,3508.00
2018-09-22T09:30:50.155Z,3520.00
2018-09-22T09:31:50.157Z,3260.00
2018-09-22T09:32:50.034Z,3304.00
2018-09-22T09:33:50.035Z,3100.00
2018-09-22T09:34:50.039Z,2948.00
2018-09-22T09:35:49.917Z,2968.00
2018-09-22T09:36:49.918Z,3244.00
2018-09-22T09:37:49.914Z,3416.00
2018-09-22T09:38:49.793Z,3892.00
2018-09-22T09:39:49.792Z,4068.00
2018-09-22T09:40:49.792Z,4028.00
2018-09-22T09:41:49.672Z,3784.00
2018-09-22T09:42:49.672Z,3940.00
2018-09-22T09:43:49.645Z,3560.00
2018-09-22T09:44:49.552Z,3400.00
2018-09-22T09:45:49.556Z,3088.00
2018-09-22T09:46:49.436Z,2804.00
2018-09-22T09:47:49.432Z,2616.00
2018-09-22T09:48:49.432Z,2468.00
2018-09-22T09:49:49.314Z,2612.00
2018-09-22T09:50:49.311Z,2604.00
2018-09-22T09:51:49.315Z,2652.00
2018-09-22T09:52:49.190Z,2344.00
2018-09-22T09:53:49.190Z,2344.00
2018-09-22T09:54:49.236Z,2796.00
2018-09-22T09:55:49.072Z,2160.00
2018-09-22T09:56:49.068Z,2652.00
2018-09-22T09:57:49.075Z,2888.00
2018-09-22T09:58:48.956Z,3448.00
2018-09-22T09:59:48.957Z,4056.00
2018-09-22T10:00:48.912Z,3812.00
2018-09-22T10:01:48.829Z,3572.00
2018-09-22T10:02:48.827Z,3376.00
2018-09-22T10:03:48.707Z,3136.00
2018-09-22T10:04:48.709Z,3096.00
2018-09-22T10:05:48.706Z,3096.00
2018-09-22T10:06:48.587Z,3044.00
2018-09-22T10:07:48.585Z,2796.00
2018-09-22T10:08:48.592Z,2724.00
2018-09-22T10:09:48.467Z,2796.00
2018-09-22T10:10:48.470Z,2796.00
2018-09-22T10:11:48.529Z,2460.00
2018-09-22T10:12:48.345Z,2424.00
2018-09-22T10:13:48.347Z,2652.00
2018-09-22T10:14:48.344Z,2976.00
2018-09-22T10:15:48.223Z,2320.00
2018-09-22T10:16:48.225Z,3000.00
2018-09-22T10:17:48.227Z,3140.00
2018-09-22T10:18:48.104Z,3384.00
2018-09-22T10:19:48.104Z,3436.00
2018-09-22T10:20:47.984Z,3592.00
2018-09-22T10:21:47.985Z,2948.00
2018-09-22T10:22:48.066Z,2504.00
2018-09-22T10:23:47.862Z,2516.00
2018-09-22T10:24:47.862Z,3352.00
2018-09-22T10:25:47.866Z,3192.00
2018-09-22T10:26:47.741Z,3016.00
2018-09-22T10:27:47.741Z,2892.00
2018-09-22T10:28:47.838Z,2948.00
2018-09-22T10:29:47.628Z,3056.00
2018-09-22T10:30:47.620Z,3068.00
2018-09-22T10:31:47.622Z,3216.00
2018-09-22T10:32:47.501Z,3444.00
2018-09-22T10:33:47.503Z,3392.00
2018-09-22T10:34:47.506Z,3436.00
2018-09-22T10:35:47.383Z,3168.00
2018-09-22T10:36:47.379Z,3084.00
2018-09-22T10:37:47.382Z,2968.00
2018-09-22T10:38:47.257Z,2864.00
2018-09-22T10:39:47.284Z,2760.00
2018-09-22T10:40:47.227Z,2676.00
2018-09-22T10:41:47.140Z,2628.00
2018-09-22T10:42:47.137Z,2612.00
2018-09-22T10:43:47.136Z,2620.00
2018-09-22T10:44:47.016Z,2688.00
2018-09-22T10:45:47.017Z,2820.00
2018-09-22T10:46:46.902Z,2968.00
2018-09-22T10:47:46.896Z,3176.00
2018-09-22T10:48:46.896Z,3440.00
2018-09-22T10:49:46.781Z,3756.00
2018-09-22T10:50:46.776Z,4116.00
2018-09-22T10:51:46.775Z,4360.00
2018-09-22T10:52:46.693Z,4616.00
2018-09-22T10:53:46.655Z,4828.00
2018-09-22T10:54:46.659Z,4984.00
2018-09-22T10:55:46.554Z,5048.00
2018-09-22T10:56:46.535Z,5008.00
2018-09-22T10:57:46.533Z,4932.00
2018-09-22T10:58:46.417Z,4572.00
2018-09-22T10:59:46.412Z,4796.00
2018-09-22T11:00:46.417Z,4784.00
2018-09-22T11:01:46.293Z,4760.00
2018-09-22T11:02:46.297Z,5092.00
2018-09-22T11:03:46.296Z,5208.00
2018-09-22T11:04:46.172Z,5448.00
2018-09-22T11:05:46.185Z,5528.00
2018-09-22T11:06:46.054Z,5100.00
2018-09-22T11:07:46.051Z,4604.00
2018-09-22T11:08:46.051Z,4540.00
2018-09-22T11:09:45.935Z,4516.00
2018-09-22T11:10:45.932Z,4640.00
2018-09-22T11:11:45.930Z,4880.00
2018-09-22T11:12:45.816Z,5012.00
2018-09-22T11:13:45.809Z,4936.00
2018-09-22T11:14:45.811Z,4772.00
2018-09-22T11:15:45.693Z,4704.00
2018-09-22T11:16:45.691Z,4400.00
2018-09-22T11:17:45.696Z,4136.00
2018-09-22T11:18:45.568Z,3856.00
2018-09-22T11:19:45.568Z,3588.00
2018-09-22T11:20:45.568Z,3524.00
2018-09-22T11:21:45.451Z,3584.00
2018-09-22T11:22:45.458Z,3580.00
2018-09-22T11:23:45.448Z,3428.00
2018-09-22T11:24:45.328Z,3420.00
2018-09-22T11:25:45.328Z,3776.00
2018-09-22T11:26:45.382Z,4008.00
2018-09-22T11:27:45.207Z,3840.00
2018-09-22T11:28:45.208Z,3500.00
2018-09-22T11:29:45.207Z,3564.00
2018-09-22T11:30:45.085Z,4196.00
2018-09-22T11:31:45.094Z,4576.00
2018-09-22T11:32:45.131Z,4408.00
2018-09-22T11:33:44.967Z,4404.00
2018-09-22T11:34:44.965Z,4572.00
2018-09-22T11:35:44.965Z,4324.00
2018-09-22T11:36:44.845Z,4116.00
2018-09-22T11:37:44.844Z,4124.00
2018-09-22T11:38:44.807Z,3884.00
2018-09-22T11:39:44.724Z,3380.00
2018-09-22T11:40:44.725Z,2968.00
2018-09-22T11:41:44.610Z,2840.00
2018-09-22T11:42:44.602Z,3248.00
2018-09-22T11:43:44.603Z,3756.00
2018-09-22T11:44:44.484Z,4184.00
2018-09-22T11:45:44.483Z,4292.00
2018-09-22T11:46:44.490Z,4212.00
2018-09-22T11:47:44.363Z,4016.00
2018-09-22T11:48:44.362Z,3548.00
2018-09-22T11:49:44.363Z,3276.00
2018-09-22T11:50:44.245Z,3348.00
2018-09-22T11:51:44.242Z,3500.00
2018-09-22T11:52:44.241Z,4004.00
2018-09-22T11:53:44.120Z,4228.00
2018-09-22T11:54:44.121Z,4292.00
2018-09-22T11:55:44.124Z,4380.00
2018-09-22T11:56:43.999Z,4392.00
2018-09-22T11:57:44.001Z,4112.00
2018-09-22T11:58:44.001Z,3860.00
2018-09-22T11:59:43.881Z,3596.00
2018-09-22T12:00:43.883Z,3876.00
2018-09-22T12:01:43.888Z,4032.00
2018-09-22T12:02:43.762Z,4424.00
2018-09-22T12:03:43.762Z,4052.00
2018-09-22T12:04:43.761Z,3852.00
2018-09-22T12:05:43.638Z,3852.00
2018-09-22T12:06:43.776Z,4012.00
2018-09-22T12:07:43.600Z,3900.00
2018-09-22T12:08:43.517Z,3484.00
2018-09-22T12:09:43.518Z,3056.00
2018-09-22T12:10:43.398Z,2796.00
2018-09-22T12:11:43.398Z,2660.00
2018-09-22T12:12:43.396Z,2684.00
2018-09-22T12:13:43.279Z,2832.00
2018-09-22T12:14:43.276Z,3024.00
2018-09-22T12:15:43.276Z,3080.00
2018-09-22T12:16:43.158Z,3024.00
2018-09-22T12:17:43.156Z,3088.00
2018-09-22T12:18:43.156Z,3164.00
2018-09-22T12:19:43.036Z,3144.00
2018-09-22T12:20:43.034Z,2956.00
2018-09-22T12:21:43.036Z,2608.00
2018-09-22T12:22:42.916Z,2476.00
2018-09-22T12:23:42.917Z,2620.00
2018-09-22T12:24:42.917Z,2744.00
2018-09-22T12:25:42.797Z,2692.00
2018-09-22T12:26:42.793Z,2660.00
2018-09-22T12:27:42.796Z,2624.00
2018-09-22T12:28:42.674Z,2540.00
2018-09-22T12:29:42.674Z,2572.00
2018-09-22T12:30:42.637Z,2660.00
2018-09-22T12:31:42.551Z,2744.00
2018-09-22T12:32:42.557Z,2932.00
2018-09-22T12:33:42.433Z,3096.00
2018-09-22T12:34:42.433Z,3108.00
2018-09-22T12:35:42.432Z,3044.00